createdAt,value
2022-11-09T00:02:06.588Z,12.25
2022-11-09T00:04:33.855Z,13.20
2022-11-09T00:07:01.894Z,12.48
2022-11-09T00:10:51.647Z,13.63
2022-11-09T00:47:38.071Z,13.57
2022-11-09T01:02:30.378Z,15.60
2022-11-09T01:05:09.535Z,15.60
2022-11-09T01:07:45.188Z,14.35
2022-11-09T01:10:17.425Z,14.90
2022-11-09T01:13:13.860Z,15.07
2022-11-09T01:15:54.462Z,16.63
2022-11-09T01:18:22.289Z,17.20
2022-11-09T01:37:55.186Z,14.68
2022-11-09T02:15:46.156Z,16.48
2022-11-09T02:40:54.439Z,15.00
2022-11-09T02:54:31.511Z,16.73
2022-11-09T02:57:07.097Z,15.63
2022-11-09T02:59:34.663Z,17.42
2022-11-09T03:02:03.488Z,16.60
2022-11-09T03:04:32.664Z,15.90
2022-11-09T03:07:01.314Z,16.35
2022-11-09T03:10:02.528Z,17.10
2022-11-09T03:12:37.847Z,15.82
2022-11-09T03:28:48.819Z,15.50
2022-11-09T03:31:16.798Z,16.42
2022-11-09T03:33:46.305Z,14.90
2022-11-09T03:36:15.384Z,15.90
2022-11-09T03:38:42.605Z,17.08
2022-11-09T03:41:10.295Z,14.70
2022-11-09T03:43:37.675Z,17.95
2022-11-09T03:46:04.869Z,16.88
2022-11-09T03:48:32.123Z,15.05
2022-11-09T03:53:50.404Z,13.90
2022-11-09T03:56:18.489Z,14.75
2022-11-09T03:59:22.619Z,16.23
2022-11-09T04:02:06.306Z,16.15
2022-11-09T04:04:33.874Z,14.45
2022-11-09T04:26:02.453Z,14.45
2022-11-09T04:44:11.697Z,13.15
2022-11-09T04:47:40.910Z,14.55
2022-11-09T04:57:45.862Z,14.52
2022-11-09T05:00:24.928Z,14.93
2022-11-09T05:06:41.469Z,14.60
2022-11-09T05:09:16.858Z,14.38
2022-11-09T05:11:44.596Z,14.73
2022-11-09T05:14:32.706Z,14.38
2022-11-09T05:17:12.167Z,13.57
2022-11-09T05:20:43.656Z,14.38
2022-11-09T05:23:29.449Z,14.30
2022-11-09T05:26:07.324Z,13.80
2022-11-09T05:28:34.525Z,13.88
2022-11-09T05:31:01.625Z,13.35
2022-11-09T05:33:28.852Z,13.18
2022-11-09T05:35:57.019Z,15.05
2022-11-09T05:38:51.360Z,13.00
2022-11-09T05:57:19.445Z,13.60
2022-11-09T06:04:57.150Z,13.32
2022-11-09T06:08:24.871Z,13.25
2022-11-09T06:52:14.436Z,12.85
2022-11-09T06:54:42.070Z,13.25
2022-11-09T06:57:09.386Z,13.05
2022-11-09T06:59:36.513Z,13.82
2022-11-09T07:02:03.961Z,12.88
2022-11-09T07:04:38.492Z,12.50
2022-11-09T07:07:10.099Z,13.98
2022-11-09T07:09:58.915Z,13.95
2022-11-09T07:12:36.318Z,12.90
2022-11-09T07:15:05.392Z,12.85
2022-11-09T07:17:34.651Z,13.20
2022-11-09T07:20:01.836Z,14.27
2022-11-09T07:22:29.628Z,12.95
2022-11-09T07:24:57.000Z,11.98
2022-11-09T07:27:28.458Z,11.77
2022-11-09T07:30:34.491Z,11.45
2022-11-09T07:38:46.366Z,12.23
2022-11-09T07:42:50.174Z,11.35
2022-11-09T07:45:17.576Z,11.93
2022-11-09T07:47:45.367Z,10.82
2022-11-09T07:50:20.612Z,10.95
2022-11-09T07:52:51.946Z,10.00
2022-11-09T07:55:19.456Z,11.37
2022-11-09T07:57:47.279Z,10.20
2022-11-09T08:00:19.881Z,10.75
2022-11-09T08:03:13.777Z,10.52
2022-11-09T08:06:20.210Z,11.20
2022-11-09T08:12:14.687Z,11.10
2022-11-09T08:14:42.636Z,11.00
2022-11-09T08:17:10.319Z,10.52
2022-11-09T08:19:37.889Z,11.18
2022-11-09T08:22:06.596Z,11.10
2022-11-09T08:24:34.003Z,11.45
2022-11-09T08:27:01.462Z,12.27
2022-11-09T08:29:28.921Z,12.43
2022-11-09T08:31:56.357Z,13.43
2022-11-09T08:47:55.581Z,13.00
2022-11-09T08:55:38.968Z,13.07
2022-11-09T08:58:07.612Z,13.05
2022-11-09T09:00:34.950Z,13.07
2022-11-09T09:03:06.579Z,12.63
2022-11-09T09:05:39.203Z,12.30
2022-11-09T09:08:08.398Z,12.30
2022-11-09T09:10:35.861Z,12.20
2022-11-09T09:13:04.581Z,11.77
2022-11-09T09:15:32.287Z,12.35
2022-11-09T09:18:02.294Z,10.32
2022-11-09T09:20:31.547Z,12.48
2022-11-09T09:23:01.714Z,11.57
2022-11-09T09:25:29.384Z,11.90
2022-11-09T09:27:57.558Z,11.35
2022-11-09T09:30:25.100Z,11.70
2022-11-09T09:32:52.401Z,12.35
2022-11-09T09:35:20.041Z,12.48
2022-11-09T09:37:47.162Z,10.98
2022-11-09T09:40:48.246Z,11.77
2022-11-09T09:43:42.721Z,11.75
2022-11-09T09:46:36.477Z,11.80
2022-11-09T09:49:14.481Z,13.50
2022-11-09T09:51:52.398Z,11.10
2022-11-09T09:54:33.635Z,11.68
2022-11-09T09:57:02.549Z,11.75
2022-11-09T09:59:47.738Z,11.50
2022-11-09T10:02:42.554Z,10.57
2022-11-09T10:26:03.520Z,10.93
2022-11-09T10:29:15.527Z,10.48
2022-11-09T10:32:03.679Z,9.98
2022-11-09T10:37:58.244Z,9.38
2022-11-09T11:20:36.390Z,10.40
2022-11-09T11:23:27.206Z,10.93
2022-11-09T11:26:40.414Z,11.07
2022-11-09T11:30:40.781Z,10.40
2022-11-09T11:33:39.817Z,10.15
2022-11-09T11:37:02.008Z,10.38
2022-11-09T11:40:09.970Z,9.00
2022-11-09T11:58:29.194Z,9.20
2022-11-09T12:01:27.814Z,9.13
2022-11-09T12:04:16.715Z,7.90
2022-11-09T12:07:40.600Z,8.25
2022-11-09T12:19:07.163Z,8.98
2022-11-09T12:22:57.678Z,8.98
2022-11-09T12:26:14.989Z,9.02
2022-11-09T12:29:28.454Z,9.23
2022-11-09T12:32:34.998Z,9.43
2022-11-09T12:35:37.002Z,8.80
2022-11-09T12:38:44.484Z,9.17
2022-11-09T12:41:37.257Z,10.27
2022-11-09T12:44:35.125Z,9.70
2022-11-09T12:47:39.004Z,10.10
2022-11-09T12:53:36.415Z,9.23
2022-11-09T12:56:32.225Z,9.03
2022-11-09T12:59:27.587Z,9.35
2022-11-09T13:02:31.077Z,9.07
2022-11-09T13:05:35.443Z,9.18
2022-11-09T13:08:29.526Z,9.98
2022-11-09T13:11:20.217Z,9.30
2022-11-09T13:14:29.350Z,10.30
2022-11-09T13:17:21.915Z,9.60
2022-11-09T13:24:04.440Z,9.43
2022-11-09T13:26:56.762Z,10.27
2022-11-09T13:29:45.938Z,9.70
2022-11-09T13:32:33.698Z,10.60
2022-11-09T13:35:41.095Z,11.20
2022-11-09T13:38:30.827Z,11.60
2022-11-09T13:41:32.264Z,11.20
2022-11-09T13:44:32.636Z,12.73
2022-11-09T13:47:37.089Z,11.88
2022-11-09T13:50:27.168Z,11.43
2022-11-09T13:53:37.602Z,11.30
2022-11-09T13:56:40.034Z,11.32
2022-11-09T13:59:36.443Z,12.68
2022-11-09T14:02:26.862Z,11.05
2022-11-09T14:05:33.676Z,13.35
2022-11-09T14:08:37.563Z,14.23
2022-11-09T14:12:02.066Z,13.82
2022-11-09T14:26:47.145Z,14.32
2022-11-09T14:29:33.256Z,14.43
2022-11-09T14:32:35.927Z,15.05
2022-11-09T14:35:33.798Z,16.13
2022-11-09T14:38:27.601Z,15.55
2022-11-09T14:41:24.537Z,14.80
2022-11-09T14:44:44.200Z,15.40
2022-11-09T14:47:36.740Z,14.95
2022-11-09T14:50:51.652Z,16.10
2022-11-09T14:54:11.897Z,15.95
2022-11-09T14:57:03.388Z,15.95
2022-11-09T14:59:49.536Z,16.55
2022-11-09T15:02:40.449Z,15.35
2022-11-09T15:05:40.266Z,17.40
2022-11-09T15:08:57.515Z,17.00
2022-11-09T15:12:20.985Z,16.58
2022-11-09T15:15:20.134Z,17.05
2022-11-09T15:18:06.163Z,17.10
2022-11-09T15:21:19.793Z,17.67
2022-11-09T15:24:11.593Z,17.45
2022-11-09T15:26:58.278Z,16.27
2022-11-09T15:29:45.809Z,17.75
2022-11-09T15:32:38.546Z,16.98
2022-11-09T15:35:25.311Z,17.70
2022-11-09T15:38:40.024Z,19.08
2022-11-09T15:41:27.647Z,22.98
2022-11-09T15:44:14.541Z,17.98
2022-11-09T15:47:00.689Z,17.38
2022-11-09T15:49:46.728Z,18.02
2022-11-09T15:52:32.726Z,17.45
2022-11-09T15:55:23.025Z,17.85
2022-11-09T15:58:15.448Z,18.10
2022-11-09T16:01:08.966Z,17.10
2022-11-09T16:03:54.642Z,18.10
2022-11-09T16:06:46.145Z,17.63
2022-11-09T16:09:33.677Z,17.43
2022-11-09T16:12:20.063Z,18.40
2022-11-09T16:15:06.865Z,17.02
2022-11-09T16:17:53.081Z,17.58
2022-11-09T16:20:40.526Z,18.48
2022-11-09T16:23:26.934Z,17.73
2022-11-09T16:26:19.885Z,19.15
2022-11-09T16:29:05.846Z,17.38
2022-11-09T16:31:52.959Z,17.67
2022-11-09T16:34:39.267Z,17.83
2022-11-09T16:37:31.701Z,18.55
2022-11-09T16:40:17.844Z,20.65
2022-11-09T16:43:04.587Z,18.85
2022-11-09T17:34:49.914Z,17.88
2022-11-09T17:57:15.844Z,16.35
2022-11-09T19:22:28.739Z,13.98
2022-11-09T19:25:16.583Z,14.00
2022-11-09T19:28:02.734Z,13.70
2022-11-09T19:54:20.141Z,12.93
2022-11-09T19:58:51.914Z,14.02
2022-11-09T20:06:52.028Z,16.75
2022-11-09T20:09:41.855Z,15.80
2022-11-09T20:12:51.803Z,14.88
2022-11-09T20:40:35.421Z,13.95
2022-11-09T20:43:40.084Z,14.70
2022-11-09T20:46:30.009Z,16.08
2022-11-09T20:49:19.432Z,15.43
2022-11-09T20:52:05.711Z,16.55
2022-11-09T20:54:52.027Z,15.93
2022-11-09T20:57:39.540Z,15.13
2022-11-09T21:00:26.053Z,15.13
2022-11-09T21:03:37.853Z,15.40
2022-11-09T21:06:49.829Z,13.88
2022-11-09T21:09:36.875Z,15.15
2022-11-09T21:12:25.496Z,14.88
2022-11-09T21:15:16.674Z,15.35
2022-11-09T21:18:03.029Z,14.00
2022-11-09T21:20:48.712Z,15.07
2022-11-09T21:24:13.209Z,14.63
2022-11-09T21:28:23.318Z,14.90
2022-11-09T21:36:29.597Z,15.35
2022-11-09T21:40:23.607Z,14.90
2022-11-09T21:43:10.795Z,15.20
2022-11-09T21:45:57.032Z,15.18
2022-11-09T21:48:43.136Z,15.07
2022-11-09T21:51:28.780Z,16.23
2022-11-09T21:54:14.479Z,16.35
2022-11-09T21:57:00.519Z,15.65
2022-11-09T21:59:46.518Z,14.52
2022-11-09T22:02:34.707Z,14.13
2022-11-09T22:05:28.261Z,15.65
2022-11-09T22:08:14.429Z,7.10
2022-11-09T22:11:13.777Z,6.15
2022-11-09T22:14:18.706Z,6.10
2022-11-09T22:17:10.660Z,5.30
2022-11-09T22:20:41.062Z,4.40
2022-11-09T22:23:26.742Z,4.20
2022-11-09T22:26:12.575Z,2.42
2022-11-09T22:28:59.940Z,3.40
2022-11-09T22:31:46.945Z,3.50
2022-11-09T22:34:33.130Z,3.97
2022-11-09T22:37:32.699Z,4.00
2022-11-09T22:58:58.898Z,2.83
2022-11-09T23:01:45.121Z,2.85
2022-11-09T23:04:31.333Z,2.33
2022-11-09T23:07:17.575Z,2.30
2022-11-09T23:10:03.665Z,2.10
2022-11-09T23:13:22.217Z,2.53
2022-11-09T23:30:16.815Z,7.55
2022-11-09T23:33:03.406Z,7.85
2022-11-09T23:36:46.847Z,8.13
2022-11-09T23:41:11.883Z,6.57
2022-11-09T23:45:42.782Z,5.97
2022-11-09T23:48:33.018Z,8.25
2022-11-09T23:51:42.750Z,8.68
2022-11-09T23:54:28.693Z,4.30
2022-11-09T23:57:14.709Z,3.20
